createdAt,value
2022-08-27T00:02:09.924Z,18.82
2022-08-27T00:04:39.196Z,18.84
2022-08-27T00:07:08.274Z,18.85
2022-08-27T00:09:36.988Z,18.83
2022-08-27T00:12:07.057Z,18.83
2022-08-27T00:14:40.446Z,18.82
2022-08-27T00:17:09.365Z,18.81
2022-08-27T00:19:38.111Z,18.78
2022-08-27T00:22:10.251Z,18.73
2022-08-27T00:24:46.389Z,18.75
2022-08-27T00:27:17.837Z,18.75
2022-08-27T00:29:47.433Z,18.74
2022-08-27T00:32:15.833Z,18.74
2022-08-27T00:34:44.081Z,18.71
2022-08-27T00:37:12.489Z,18.68
2022-08-27T00:39:40.674Z,18.62
2022-08-27T00:42:09.366Z,18.57
2022-08-27T00:44:38.803Z,18.51
2022-08-27T00:47:14.238Z,18.48
2022-08-27T00:49:48.115Z,18.44
2022-08-27T00:52:23.365Z,18.41
2022-08-27T00:54:56.219Z,18.39
2022-08-27T00:57:24.534Z,18.36
2022-08-27T00:59:54.045Z,18.33
2022-08-27T01:02:29.342Z,18.33
2022-08-27T01:05:02.835Z,18.34
2022-08-27T01:07:34.813Z,18.32
2022-08-27T01:10:06.069Z,18.29
2022-08-27T01:12:35.151Z,18.25
2022-08-27T01:15:12.890Z,18.17
2022-08-27T01:17:46.620Z,18.03
2022-08-27T01:20:19.975Z,17.94
2022-08-27T01:22:58.441Z,17.83
2022-08-27T01:25:28.755Z,17.72
2022-08-27T01:27:59.453Z,17.66
2022-08-27T01:30:28.721Z,17.58
2022-08-27T01:32:57.778Z,17.52
2022-08-27T01:35:26.969Z,17.46
2022-08-27T01:37:57.128Z,17.38
2022-08-27T01:40:27.106Z,17.33
2022-08-27T01:42:58.433Z,17.25
2022-08-27T01:45:29.759Z,17.19
2022-08-27T01:47:59.244Z,17.13
2022-08-27T01:50:31.803Z,17.06
2022-08-27T01:53:04.188Z,17.02
2022-08-27T01:55:34.003Z,16.97
2022-08-27T01:58:02.383Z,16.88
2022-08-27T02:00:34.987Z,16.89
2022-08-27T02:03:03.625Z,16.91
2022-08-27T02:05:32.130Z,16.94
2022-08-27T02:08:15.864Z,17.00
2022-08-27T02:10:51.801Z,17.05
2022-08-27T02:13:19.986Z,17.08
2022-08-27T02:15:48.570Z,17.13
2022-08-27T02:18:17.411Z,17.14
2022-08-27T02:20:48.056Z,17.19
2022-08-27T02:23:17.214Z,17.21
2022-08-27T02:25:47.693Z,17.25
2022-08-27T02:28:16.333Z,17.30
2022-08-27T02:30:46.714Z,17.35
2022-08-27T02:33:15.264Z,17.38
2022-08-27T02:35:44.315Z,17.39
2022-08-27T02:38:14.000Z,17.39
2022-08-27T02:40:42.250Z,17.41
2022-08-27T02:43:16.131Z,17.43
2022-08-27T02:45:54.047Z,17.45
2022-08-27T02:48:23.164Z,17.45
2022-08-27T02:50:51.617Z,17.44
2022-08-27T02:53:20.040Z,17.45
2022-08-27T02:55:48.685Z,17.46
2022-08-27T02:58:18.100Z,17.48
2022-08-27T03:00:46.547Z,17.51
2022-08-27T03:03:15.772Z,17.55
2022-08-27T03:05:43.925Z,17.59
2022-08-27T03:08:12.348Z,17.61
2022-08-27T03:10:41.117Z,17.60
2022-08-27T03:13:09.242Z,17.57
2022-08-27T03:15:39.461Z,17.54
2022-08-27T03:18:18.604Z,17.49
2022-08-27T03:20:50.710Z,17.44
2022-08-27T03:23:22.283Z,17.41
2022-08-27T03:25:53.365Z,17.37
2022-08-27T03:28:23.827Z,17.36
2022-08-27T03:30:58.469Z,17.34
2022-08-27T03:33:27.226Z,17.34
2022-08-27T03:35:55.557Z,17.35
2022-08-27T03:38:25.677Z,17.34
2022-08-27T03:40:54.437Z,17.38
2022-08-27T03:43:24.035Z,17.41
2022-08-27T03:46:00.534Z,17.44
2022-08-27T03:48:30.936Z,17.47
2022-08-27T03:50:59.270Z,17.53
2022-08-27T03:53:28.269Z,17.57
2022-08-27T03:55:56.357Z,17.60
2022-08-27T03:58:24.459Z,17.64
2022-08-27T04:00:54.062Z,17.65
2022-08-27T04:03:22.373Z,17.71
2022-08-27T04:05:54.916Z,17.76
2022-08-27T04:08:23.592Z,17.78
2022-08-27T04:10:53.676Z,17.75
2022-08-27T04:13:23.192Z,17.68
2022-08-27T04:15:55.366Z,17.58
2022-08-27T04:18:23.723Z,17.46
2022-08-27T04:20:53.481Z,17.34
2022-08-27T04:23:22.269Z,17.23
2022-08-27T04:25:50.476Z,17.14
2022-08-27T04:28:18.626Z,17.07
2022-08-27T04:30:50.221Z,16.99
2022-08-27T04:33:19.672Z,16.93
2022-08-27T04:35:47.862Z,16.86
2022-08-27T04:38:15.968Z,16.80
2022-08-27T04:41:01.545Z,16.75
2022-08-27T04:43:29.909Z,16.70
2022-08-27T04:45:58.059Z,16.68
2022-08-27T04:48:27.866Z,16.68
2022-08-27T04:50:55.971Z,16.71
2022-08-27T04:53:24.461Z,16.72
2022-08-27T04:55:55.931Z,16.72
2022-08-27T04:58:26.142Z,16.69
2022-08-27T05:00:59.960Z,16.65
2022-08-27T05:03:30.175Z,16.61
2022-08-27T05:06:02.841Z,16.58
2022-08-27T05:08:32.191Z,16.57
2022-08-27T05:11:00.478Z,16.57
2022-08-27T05:13:29.608Z,16.56
2022-08-27T05:16:03.591Z,16.52
2022-08-27T05:18:41.336Z,16.52
2022-08-27T05:21:19.609Z,16.50
2022-08-27T05:23:48.093Z,16.50
2022-08-27T05:26:16.730Z,16.50
2022-08-27T05:28:45.191Z,16.52
2022-08-27T05:31:15.423Z,16.52
2022-08-27T05:33:45.257Z,16.55
2022-08-27T05:36:19.725Z,16.57
2022-08-27T05:38:49.331Z,16.62
2022-08-27T05:41:20.850Z,16.70
2022-08-27T05:43:50.706Z,16.77
2022-08-27T05:46:25.130Z,16.87
2022-08-27T05:48:58.314Z,16.97
2022-08-27T05:51:29.994Z,17.07
2022-08-27T05:54:04.556Z,17.18
2022-08-27T05:56:37.588Z,17.27
2022-08-27T05:59:24.660Z,17.38
2022-08-27T06:01:55.822Z,17.49
2022-08-27T06:04:26.485Z,17.60
2022-08-27T06:06:55.347Z,17.67
2022-08-27T06:09:25.768Z,17.77
2022-08-27T06:11:55.600Z,17.88
2022-08-27T06:14:24.370Z,18.00
2022-08-27T06:16:52.693Z,18.18
2022-08-27T06:19:21.034Z,18.39
2022-08-27T06:22:01.300Z,18.58
2022-08-27T06:24:40.363Z,18.77
2022-08-27T06:27:11.243Z,18.90
2022-08-27T06:29:40.264Z,18.99
2022-08-27T06:32:09.543Z,19.07
2022-08-27T06:34:38.334Z,19.19
2022-08-27T06:37:08.478Z,19.35
2022-08-27T06:39:37.776Z,19.56
2022-08-27T06:42:13.286Z,19.79
2022-08-27T06:44:42.079Z,19.99
2022-08-27T06:47:10.351Z,20.17
2022-08-27T06:49:43.416Z,20.33
2022-08-27T06:52:15.989Z,20.46
2022-08-27T06:54:44.981Z,20.57
2022-08-27T06:57:13.119Z,20.68
2022-08-27T06:59:41.205Z,20.80
2022-08-27T07:02:09.687Z,20.90
2022-08-27T07:04:38.507Z,20.97
2022-08-27T07:07:08.049Z,21.02
2022-08-27T07:09:38.445Z,21.13
2022-08-27T07:12:07.616Z,21.23
2022-08-27T07:14:38.274Z,21.33
2022-08-27T07:17:10.714Z,21.39
2022-08-27T07:19:40.841Z,21.45
2022-08-27T07:22:10.815Z,21.52
2022-08-27T07:24:41.030Z,21.62
2022-08-27T07:27:10.797Z,21.74
2022-08-27T07:29:39.910Z,21.83
2022-08-27T07:32:08.141Z,21.90
2022-08-27T07:34:36.500Z,21.97
2022-08-27T07:37:04.842Z,22.07
2022-08-27T07:39:33.079Z,22.12
2022-08-27T07:42:19.958Z,22.17
2022-08-27T07:44:48.039Z,22.24
2022-08-27T07:47:16.278Z,22.35
2022-08-27T07:49:44.398Z,22.55
2022-08-27T07:52:13.587Z,22.77
2022-08-27T07:54:42.174Z,22.83
2022-08-27T07:57:12.585Z,22.81
2022-08-27T07:59:40.801Z,22.74
2022-08-27T08:02:08.993Z,22.73
2022-08-27T08:04:37.151Z,22.74
2022-08-27T08:07:06.640Z,22.73
2022-08-27T08:09:34.929Z,22.68
2022-08-27T08:12:03.473Z,22.66
2022-08-27T08:14:33.490Z,22.67
2022-08-27T08:17:02.890Z,22.75
2022-08-27T08:19:33.999Z,22.83
2022-08-27T08:22:05.708Z,22.93
2022-08-27T08:24:34.915Z,23.07
2022-08-27T08:27:07.216Z,23.21
2022-08-27T08:29:38.036Z,23.45
2022-08-27T08:32:07.363Z,23.59
2022-08-27T08:34:36.800Z,23.71
2022-08-27T08:37:06.779Z,23.75
2022-08-27T08:39:36.287Z,23.72
2022-08-27T08:42:08.438Z,23.63
2022-08-27T08:44:43.245Z,23.56
2022-08-27T08:47:16.770Z,23.53
2022-08-27T08:49:52.951Z,23.52
2022-08-27T08:52:33.827Z,23.52
2022-08-27T08:55:16.486Z,23.58
2022-08-27T08:57:53.258Z,23.76
2022-08-27T09:00:23.100Z,23.92
2022-08-27T09:02:55.546Z,24.00
2022-08-27T09:05:27.859Z,23.99
2022-08-27T09:08:31.938Z,23.93
2022-08-27T09:11:08.236Z,23.89
2022-08-27T09:13:42.814Z,24.01
2022-08-27T09:16:12.318Z,24.03
2022-08-27T09:18:45.453Z,23.98
2022-08-27T09:21:28.295Z,23.90
2022-08-27T09:24:14.937Z,23.93
2022-08-27T09:26:45.674Z,24.02
2022-08-27T09:29:19.809Z,24.13
2022-08-27T09:31:56.766Z,24.20
2022-08-27T09:34:27.458Z,24.30
2022-08-27T09:37:06.764Z,24.38
2022-08-27T09:39:43.785Z,24.47
2022-08-27T09:42:31.579Z,24.55
2022-08-27T09:45:09.191Z,24.63
2022-08-27T09:47:47.292Z,24.68
2022-08-27T09:50:18.738Z,24.74
2022-08-27T09:52:55.255Z,24.75
2022-08-27T09:55:44.765Z,24.67
2022-08-27T09:58:21.735Z,24.65
2022-08-27T10:00:58.808Z,24.66
2022-08-27T10:03:32.748Z,24.80
2022-08-27T10:06:01.858Z,24.93
2022-08-27T10:08:39.779Z,25.04
2022-08-27T10:11:16.355Z,24.96
2022-08-27T10:13:53.414Z,25.06
2022-08-27T10:16:52.583Z,25.15
2022-08-27T10:19:43.882Z,25.27
2022-08-27T10:22:27.491Z,25.51
2022-08-27T10:25:15.406Z,25.63
2022-08-27T10:27:55.188Z,25.78
2022-08-27T10:30:32.807Z,25.74
2022-08-27T10:33:10.612Z,25.65
2022-08-27T10:35:55.033Z,25.65
2022-08-27T10:38:31.954Z,25.58
2022-08-27T10:41:06.543Z,25.47
2022-08-27T10:44:02.511Z,25.28
2022-08-27T10:47:01.351Z,24.96
2022-08-27T10:49:39.887Z,24.73
2022-08-27T10:52:18.948Z,24.60
2022-08-27T10:54:58.328Z,24.87
2022-08-27T10:57:56.354Z,25.32
2022-08-27T11:00:40.868Z,25.51
2022-08-27T11:03:15.076Z,25.52
2022-08-27T11:05:47.184Z,25.48
2022-08-27T11:08:22.711Z,25.47
2022-08-27T11:10:56.748Z,25.64
2022-08-27T11:13:37.329Z,25.90
2022-08-27T11:16:27.577Z,26.03
2022-08-27T11:19:00.515Z,25.99
2022-08-27T11:21:35.754Z,25.83
2022-08-27T11:24:22.608Z,25.78
2022-08-27T11:26:53.813Z,25.83
2022-08-27T11:29:29.560Z,25.90
2022-08-27T11:32:07.303Z,26.18
2022-08-27T11:34:42.911Z,26.64
2022-08-27T11:37:40.987Z,26.59
2022-08-27T11:40:42.865Z,26.27
2022-08-27T11:43:14.899Z,26.10
2022-08-27T11:45:57.600Z,26.13
2022-08-27T11:48:30.001Z,26.25
2022-08-27T11:51:01.771Z,26.63
2022-08-27T11:53:33.426Z,27.28
2022-08-27T11:56:16.874Z,27.60
2022-08-27T11:58:53.427Z,27.44
2022-08-27T12:01:28.672Z,27.72
2022-08-27T12:04:06.387Z,28.26
2022-08-27T12:06:45.149Z,28.62
2022-08-27T12:09:20.477Z,28.24
2022-08-27T12:12:04.771Z,27.79
2022-08-27T12:14:44.573Z,28.21
2022-08-27T12:17:23.233Z,29.00
2022-08-27T12:20:06.536Z,29.55
2022-08-27T12:23:21.553Z,28.92
2022-08-27T12:25:58.667Z,28.30
2022-08-27T12:28:29.309Z,28.67
2022-08-27T12:30:58.675Z,29.15
2022-08-27T12:33:34.402Z,29.69
2022-08-27T12:36:11.527Z,30.29
2022-08-27T12:38:50.528Z,30.75
2022-08-27T12:41:28.212Z,30.50
2022-08-27T12:44:10.010Z,30.52
2022-08-27T12:46:47.383Z,30.41
2022-08-27T12:49:39.147Z,30.06
2022-08-27T12:52:21.145Z,30.69
2022-08-27T12:55:04.686Z,31.04
2022-08-27T12:57:42.089Z,30.47
2022-08-27T13:00:19.290Z,29.85
2022-08-27T13:03:16.197Z,29.19
2022-08-27T13:05:48.903Z,28.78
2022-08-27T13:08:23.255Z,28.60
2022-08-27T13:10:52.319Z,28.39
2022-08-27T13:13:22.852Z,29.23
2022-08-27T13:15:58.546Z,30.39
2022-08-27T13:18:29.931Z,30.65
2022-08-27T13:21:07.427Z,30.04
2022-08-27T13:23:35.719Z,30.68
2022-08-27T13:26:10.002Z,31.61
2022-08-27T13:28:41.248Z,32.25
2022-08-27T13:31:12.017Z,32.74
2022-08-27T13:33:42.356Z,33.12
2022-08-27T13:36:11.464Z,33.79
2022-08-27T13:38:47.861Z,33.96
2022-08-27T13:41:28.693Z,33.40
2022-08-27T13:43:59.578Z,32.28
2022-08-27T13:46:33.814Z,31.45
2022-08-27T13:49:02.160Z,32.20
2022-08-27T13:51:33.871Z,32.91
2022-08-27T13:54:15.730Z,32.49
2022-08-27T13:57:03.602Z,32.04
2022-08-27T13:59:33.209Z,31.69
2022-08-27T14:02:17.031Z,32.41
2022-08-27T14:04:47.505Z,32.08
2022-08-27T14:07:23.784Z,31.20
2022-08-27T14:09:57.226Z,30.67
2022-08-27T14:12:33.331Z,30.49
2022-08-27T14:15:22.270Z,31.31
2022-08-27T14:17:52.124Z,31.97
2022-08-27T14:20:21.401Z,32.26
2022-08-27T14:22:50.504Z,32.98
2022-08-27T14:25:22.409Z,33.36
2022-08-27T14:27:54.604Z,33.55
2022-08-27T14:30:29.697Z,33.53
2022-08-27T14:33:01.571Z,33.73
2022-08-27T14:35:32.788Z,34.67
2022-08-27T14:38:06.005Z,35.77
2022-08-27T14:40:35.701Z,36.42
2022-08-27T14:43:03.979Z,37.19
2022-08-27T14:45:35.454Z,37.25
2022-08-27T14:48:07.673Z,36.28
2022-08-27T14:50:46.903Z,35.18
2022-08-27T14:53:15.267Z,35.96
2022-08-27T14:55:44.889Z,36.91
2022-08-27T14:58:21.110Z,37.79
2022-08-27T15:00:51.958Z,38.57
2022-08-27T15:03:25.573Z,38.28
2022-08-27T15:05:55.837Z,36.84
2022-08-27T15:08:29.062Z,35.53
2022-08-27T15:10:58.149Z,34.46
2022-08-27T15:13:26.525Z,34.38
2022-08-27T15:15:54.721Z,35.75
2022-08-27T15:18:24.291Z,36.88
2022-08-27T15:20:54.728Z,36.72
2022-08-27T15:23:22.906Z,35.61
2022-08-27T15:25:51.193Z,34.24
2022-08-27T15:28:19.351Z,34.93
2022-08-27T15:30:47.627Z,36.24
2022-08-27T15:33:15.761Z,37.40
2022-08-27T15:35:45.374Z,38.48
2022-08-27T15:38:13.611Z,39.11
2022-08-27T15:40:41.997Z,39.11
2022-08-27T15:43:11.799Z,39.29
2022-08-27T15:45:39.870Z,39.06
2022-08-27T15:48:08.211Z,37.78
2022-08-27T15:50:38.177Z,35.59
2022-08-27T15:53:10.845Z,33.57
2022-08-27T15:55:43.053Z,32.25
2022-08-27T15:58:11.779Z,31.31
2022-08-27T16:00:42.634Z,30.43
2022-08-27T16:03:14.131Z,29.65
2022-08-27T16:05:46.120Z,29.07
2022-08-27T16:08:15.940Z,28.50
2022-08-27T16:10:44.106Z,28.19
2022-08-27T16:13:14.122Z,27.97
2022-08-27T16:15:43.034Z,27.59
2022-08-27T16:18:11.887Z,27.33
2022-08-27T16:20:42.337Z,27.05
2022-08-27T16:23:10.505Z,26.83
2022-08-27T16:25:40.357Z,26.63
2022-08-27T16:28:08.539Z,26.40
2022-08-27T16:30:36.995Z,26.08
2022-08-27T16:33:05.473Z,25.87
2022-08-27T16:35:33.684Z,25.72
2022-08-27T16:38:01.841Z,25.54
2022-08-27T16:40:30.490Z,26.33
2022-08-27T16:43:01.534Z,28.56
2022-08-27T16:45:29.826Z,30.20
2022-08-27T16:48:15.379Z,30.62
2022-08-27T16:50:44.222Z,29.29
2022-08-27T16:53:14.871Z,27.92
2022-08-27T16:55:47.854Z,26.89
2022-08-27T16:58:22.482Z,26.24
2022-08-27T17:00:53.654Z,25.95
2022-08-27T17:03:23.866Z,26.88
2022-08-27T17:05:53.408Z,28.77
2022-08-27T17:08:26.211Z,30.43
2022-08-27T17:10:56.924Z,31.70
2022-08-27T17:13:30.012Z,32.63
2022-08-27T17:16:01.067Z,32.96
2022-08-27T17:18:29.951Z,33.36
2022-08-27T17:21:00.817Z,33.59
2022-08-27T17:23:35.281Z,33.84
2022-08-27T17:26:05.725Z,33.78
2022-08-27T17:28:35.452Z,33.09
2022-08-27T17:31:04.390Z,32.72
2022-08-27T17:33:38.899Z,32.66
2022-08-27T17:36:09.354Z,32.22
2022-08-27T17:38:38.943Z,31.55
2022-08-27T17:41:14.863Z,30.71
2022-08-27T17:43:44.769Z,30.13
2022-08-27T17:46:13.781Z,30.06
2022-08-27T17:48:42.576Z,30.02
2022-08-27T17:51:13.286Z,29.93
2022-08-27T17:53:48.125Z,29.63
2022-08-27T17:56:18.421Z,28.82
2022-08-27T17:58:48.382Z,27.85
2022-08-27T18:01:22.857Z,26.94
2022-08-27T18:03:58.949Z,26.22
2022-08-27T18:06:28.842Z,25.69
2022-08-27T18:08:56.976Z,25.34
2022-08-27T18:11:25.380Z,25.02
2022-08-27T18:14:02.780Z,24.55
2022-08-27T18:16:33.269Z,24.04
2022-08-27T18:19:02.132Z,23.59
2022-08-27T18:21:35.728Z,23.13
2022-08-27T18:24:11.296Z,22.69
2022-08-27T18:26:39.578Z,22.41
2022-08-27T18:29:09.193Z,22.12
2022-08-27T18:31:37.503Z,21.89
2022-08-27T18:34:05.764Z,21.67
2022-08-27T18:36:33.942Z,21.47
2022-08-27T18:39:02.068Z,21.26
2022-08-27T18:41:32.044Z,21.08
2022-08-27T18:44:02.716Z,20.92
2022-08-27T18:46:32.345Z,20.80
2022-08-27T18:49:00.494Z,20.72
2022-08-27T18:51:31.141Z,20.61
2022-08-27T18:54:05.137Z,20.52
2022-08-27T18:56:33.427Z,20.42
2022-08-27T18:59:01.659Z,20.35
2022-08-27T19:01:31.918Z,20.29
2022-08-27T19:04:02.893Z,20.22
2022-08-27T19:06:32.338Z,20.16
2022-08-27T19:09:00.750Z,20.11
2022-08-27T19:11:29.187Z,20.05
2022-08-27T19:13:57.542Z,19.96
2022-08-27T19:16:35.517Z,19.85
2022-08-27T19:19:05.621Z,19.74
2022-08-27T19:21:38.160Z,19.65
2022-08-27T19:24:07.556Z,19.58
2022-08-27T19:26:36.665Z,19.57
2022-08-27T19:29:05.181Z,19.54
2022-08-27T19:31:36.504Z,19.44
2022-08-27T19:34:05.838Z,19.33
2022-08-27T19:36:38.096Z,19.22
2022-08-27T19:39:11.437Z,19.10
2022-08-27T19:41:39.578Z,18.99
2022-08-27T19:44:07.816Z,18.88
2022-08-27T19:46:37.972Z,18.76
2022-08-27T19:49:06.293Z,18.68
2022-08-27T19:51:34.614Z,18.61
2022-08-27T19:54:03.821Z,18.52
2022-08-27T19:56:32.679Z,18.45
2022-08-27T19:59:13.444Z,18.37
2022-08-27T20:01:50.327Z,18.28
2022-08-27T20:04:18.465Z,18.20
2022-08-27T20:06:46.667Z,18.13
2022-08-27T20:09:16.135Z,18.06
2022-08-27T20:11:45.892Z,18.00
2022-08-27T20:14:14.470Z,17.95
2022-08-27T20:16:43.076Z,17.88
2022-08-27T20:19:13.219Z,17.83
2022-08-27T20:21:41.783Z,17.78
2022-08-27T20:24:10.118Z,17.75
2022-08-27T20:26:39.266Z,17.75
2022-08-27T20:29:08.774Z,17.75
2022-08-27T20:31:36.960Z,17.70
2022-08-27T20:34:05.376Z,17.67
2022-08-27T20:36:35.597Z,17.63
2022-08-27T20:39:04.857Z,17.59
2022-08-27T20:41:33.260Z,17.55
2022-08-27T20:44:02.104Z,17.55
2022-08-27T20:46:31.961Z,17.62
2022-08-27T20:49:00.081Z,17.73
2022-08-27T20:51:28.812Z,17.80
2022-08-27T20:53:58.292Z,17.83
2022-08-27T20:56:26.459Z,17.82
2022-08-27T20:59:12.064Z,17.76
2022-08-27T21:01:40.318Z,17.66
2022-08-27T21:04:08.495Z,17.57
2022-08-27T21:06:36.659Z,17.50
2022-08-27T21:09:06.363Z,17.41
2022-08-27T21:11:34.544Z,17.33
2022-08-27T21:14:02.649Z,17.27
2022-08-27T21:16:31.311Z,17.22
2022-08-27T21:18:59.805Z,17.20
2022-08-27T21:21:27.962Z,17.19
2022-08-27T21:23:56.053Z,17.23
2022-08-27T21:26:25.543Z,17.28
2022-08-27T21:28:55.760Z,17.32
2022-08-27T21:31:25.012Z,17.42
2022-08-27T21:33:53.370Z,17.53
2022-08-27T21:36:21.786Z,17.64
2022-08-27T21:38:50.211Z,17.75
2022-08-27T21:41:18.646Z,17.84
2022-08-27T21:43:48.152Z,17.92
2022-08-27T21:46:16.252Z,17.99
2022-08-27T21:48:44.701Z,18.00
2022-08-27T21:51:24.442Z,17.99
2022-08-27T21:53:52.878Z,17.93
2022-08-27T21:56:21.018Z,17.82
2022-08-27T21:58:50.785Z,17.69
2022-08-27T22:01:19.771Z,17.60
2022-08-27T22:03:50.672Z,17.49
2022-08-27T22:06:19.298Z,17.45
2022-08-27T22:08:47.529Z,17.48
2022-08-27T22:11:20.611Z,17.55
2022-08-27T22:13:53.249Z,17.60
2022-08-27T22:16:21.449Z,17.59
2022-08-27T22:18:54.293Z,17.56
2022-08-27T22:21:23.278Z,17.49
2022-08-27T22:23:52.355Z,17.42
2022-08-27T22:26:22.011Z,17.34
2022-08-27T22:28:50.839Z,17.26
2022-08-27T22:31:20.511Z,17.20
2022-08-27T22:33:48.796Z,17.12
2022-08-27T22:36:17.106Z,17.04
2022-08-27T22:38:45.176Z,16.99
2022-08-27T22:41:14.944Z,16.92
2022-08-27T22:43:46.920Z,16.87
2022-08-27T22:46:15.105Z,16.84
2022-08-27T22:48:44.699Z,16.78
2022-08-27T22:51:12.843Z,16.74
2022-08-27T22:53:40.914Z,16.69
2022-08-27T22:56:09.045Z,16.63
2022-08-27T22:58:37.256Z,16.58
2022-08-27T23:01:05.769Z,16.53
2022-08-27T23:03:33.939Z,16.50
2022-08-27T23:06:03.727Z,16.45
2022-08-27T23:08:32.096Z,16.41
2022-08-27T23:11:03.370Z,16.37
2022-08-27T23:13:32.452Z,16.33
2022-08-27T23:16:01.489Z,16.29
2022-08-27T23:18:30.174Z,16.26
2022-08-27T23:20:58.542Z,16.24
2022-08-27T23:23:30.675Z,16.21
2022-08-27T23:26:16.815Z,16.17
2022-08-27T23:28:45.189Z,16.13
2022-08-27T23:31:14.269Z,16.10
2022-08-27T23:33:45.808Z,16.07
2022-08-27T23:36:14.318Z,16.04
2022-08-27T23:38:43.878Z,16.03
2022-08-27T23:41:12.090Z,16.03
2022-08-27T23:43:40.262Z,16.03
2022-08-27T23:46:08.697Z,16.01
2022-08-27T23:48:39.387Z,16.01
2022-08-27T23:51:07.841Z,16.00
2022-08-27T23:53:36.081Z,15.98
2022-08-27T23:56:06.749Z,15.97
2022-08-27T23:58:34.931Z,15.94
